createdAt,value
2023-03-31T06:45:22.348Z,0.90
2023-03-31T06:46:22.349Z,1.00
2023-03-31T06:47:22.287Z,0.80
2023-03-31T06:48:22.219Z,0.90
2023-03-31T06:49:22.237Z,0.60
2023-03-31T06:50:22.339Z,0.70
2023-03-31T06:51:22.269Z,0.80
2023-03-31T06:52:22.192Z,0.50
2023-03-31T06:53:22.274Z,0.70
2023-03-31T06:54:22.154Z,0.80
2023-03-31T06:55:22.172Z,0.80
2023-03-31T06:56:22.203Z,1.00
2023-03-31T06:57:22.355Z,0.70
2023-03-31T06:58:22.119Z,1.00
2023-03-31T06:59:22.151Z,0.80
2023-03-31T07:00:23.253Z,0.70
2023-03-31T07:01:22.152Z,0.80
2023-03-31T07:02:22.224Z,0.80
2023-03-31T07:03:22.195Z,0.90
2023-03-31T07:04:22.136Z,0.70
2023-03-31T07:05:22.034Z,0.80
2023-03-31T07:06:22.095Z,0.70
2023-03-31T07:07:22.038Z,0.80
2023-03-31T07:08:22.018Z,0.70
2023-03-31T07:09:22.008Z,0.80
2023-03-31T07:10:22.068Z,0.80
2023-03-31T07:11:22.002Z,0.40
2023-03-31T07:12:21.968Z,0.60
2023-03-31T07:13:22.002Z,0.90
2023-03-31T07:14:21.919Z,0.70
2023-03-31T07:15:21.937Z,0.90
2023-03-31T07:16:21.927Z,0.90
2023-03-31T07:17:22.080Z,0.80
2023-03-31T07:18:22.605Z,0.80
2023-03-31T07:19:22.444Z,0.70
2023-03-31T07:20:21.884Z,0.90
2023-03-31T07:21:21.947Z,1.00
2023-03-31T07:22:21.866Z,1.00
2023-03-31T07:23:21.852Z,0.70
2023-03-31T07:24:21.841Z,0.80
2023-03-31T07:25:21.903Z,0.80
2023-03-31T07:26:21.800Z,0.80
2023-03-31T07:27:23.585Z,0.80
2023-03-31T07:28:21.777Z,1.10
2023-03-31T07:29:21.785Z,0.80
2023-03-31T07:30:21.764Z,0.60
2023-03-31T07:31:21.784Z,0.70
2023-03-31T07:32:21.745Z,1.10
2023-03-31T07:33:21.756Z,0.90
2023-03-31T07:34:21.728Z,0.70
2023-03-31T07:35:21.704Z,0.80
2023-03-31T07:36:22.088Z,0.70
2023-03-31T07:37:21.692Z,0.80
2023-03-31T07:38:21.753Z,1.10
2023-03-31T07:39:21.748Z,1.00
2023-03-31T07:40:21.662Z,1.10
2023-03-31T07:41:21.679Z,1.10
2023-03-31T07:42:21.630Z,1.00
2023-03-31T07:43:21.651Z,0.80
2023-03-31T07:44:21.664Z,1.10
2023-03-31T07:45:21.609Z,0.70
2023-03-31T07:46:21.658Z,1.00
2023-03-31T07:47:21.596Z,1.20
2023-03-31T07:48:21.558Z,1.00
2023-03-31T07:49:21.612Z,0.60
2023-03-31T07:50:21.540Z,1.00
2023-03-31T07:51:21.536Z,0.90
2023-03-31T07:52:21.633Z,0.90
2023-03-31T07:53:21.541Z,1.00
2023-03-31T07:54:21.639Z,1.00
2023-03-31T07:55:21.501Z,1.10
2023-03-31T07:56:21.453Z,1.00
2023-03-31T07:57:21.562Z,1.00
2023-03-31T07:58:21.576Z,0.80
2023-03-31T07:59:22.259Z,1.00
2023-03-31T08:00:21.456Z,1.00
2023-03-31T08:01:21.472Z,0.80
2023-03-31T08:02:21.558Z,1.10
2023-03-31T08:03:21.454Z,0.90
2023-03-31T08:04:21.436Z,0.90
2023-03-31T08:05:21.380Z,0.90
2023-03-31T08:06:21.419Z,0.70
2023-03-31T08:07:21.366Z,1.00
2023-03-31T08:08:21.349Z,0.80
2023-03-31T08:09:21.357Z,1.00
2023-03-31T08:10:21.332Z,1.00
2023-03-31T08:11:21.483Z,0.90
2023-03-31T08:12:21.282Z,1.10
2023-03-31T08:13:21.344Z,1.30
2023-03-31T08:14:30.319Z,0.80
2023-03-31T08:15:22.506Z,1.00
2023-03-31T08:16:21.414Z,1.20
2023-03-31T08:17:21.243Z,1.00
2023-03-31T08:18:21.231Z,0.90
2023-03-31T08:19:21.275Z,0.70
2023-03-31T08:20:22.106Z,0.90
2023-03-31T08:21:23.757Z,0.80
2023-03-31T08:22:21.224Z,0.80
2023-03-31T08:23:21.171Z,1.20
2023-03-31T08:24:21.181Z,1.80
2023-03-31T08:25:21.156Z,1.50
2023-03-31T08:26:21.439Z,0.90
2023-03-31T08:27:21.189Z,1.20
2023-03-31T08:28:21.361Z,1.70
2023-03-31T08:29:21.348Z,1.50
2023-03-31T08:30:21.149Z,1.20
2023-03-31T08:31:21.101Z,1.50
2023-03-31T08:32:21.068Z,1.50
2023-03-31T08:33:21.040Z,1.40
2023-03-31T08:34:21.113Z,1.60
2023-03-31T08:35:21.071Z,1.70
2023-03-31T08:36:21.086Z,1.10
2023-03-31T08:37:21.111Z,1.30
2023-03-31T08:38:21.041Z,1.50
2023-03-31T08:39:21.212Z,0.90
2023-03-31T08:40:21.765Z,0.90
2023-03-31T08:41:21.000Z,1.20
2023-03-31T08:42:20.982Z,1.00
2023-03-31T08:43:21.061Z,1.00
2023-03-31T08:44:21.072Z,0.80
2023-03-31T08:45:21.613Z,1.00
2023-03-31T08:46:21.077Z,0.70
2023-03-31T08:47:20.890Z,0.80
2023-03-31T08:48:21.133Z,1.20
2023-03-31T08:49:20.859Z,0.90
2023-03-31T08:50:20.882Z,1.10
2023-03-31T08:51:20.876Z,1.00
2023-03-31T08:52:20.862Z,1.10
2023-03-31T08:53:20.814Z,0.70
2023-03-31T08:54:22.145Z,1.00
2023-03-31T08:55:20.970Z,1.10
2023-03-31T08:56:20.919Z,0.90
2023-03-31T08:57:21.166Z,1.00
2023-03-31T08:58:20.966Z,0.70
2023-03-31T08:59:20.971Z,0.90
2023-03-31T09:00:20.902Z,1.00
2023-03-31T09:01:20.872Z,0.80
2023-03-31T09:02:20.885Z,0.70
2023-03-31T09:03:20.864Z,0.70
2023-03-31T09:04:20.846Z,1.10
2023-03-31T09:05:20.702Z,0.90
2023-03-31T09:06:20.860Z,0.70
2023-03-31T09:07:20.735Z,0.90
2023-03-31T09:08:20.713Z,1.00
2023-03-31T09:09:20.632Z,1.20
2023-03-31T09:10:20.700Z,0.90
2023-03-31T09:11:20.668Z,1.40
2023-03-31T09:12:20.690Z,1.10
2023-03-31T09:13:20.724Z,1.00
2023-03-31T09:14:20.643Z,1.20
2023-03-31T09:15:20.714Z,0.90
2023-03-31T09:16:20.748Z,0.90
2023-03-31T09:17:21.008Z,1.10
2023-03-31T09:18:21.128Z,1.00
2023-03-31T09:19:20.557Z,1.20
2023-03-31T09:20:20.629Z,1.10
2023-03-31T09:21:21.418Z,1.30
2023-03-31T09:22:20.605Z,1.10
2023-03-31T09:23:20.836Z,1.30
2023-03-31T09:24:20.547Z,1.30
2023-03-31T09:25:20.457Z,1.00
2023-03-31T09:26:20.667Z,0.90
2023-03-31T09:27:21.146Z,1.00
2023-03-31T09:28:20.492Z,1.00
2023-03-31T09:29:20.453Z,1.10
2023-03-31T09:30:20.560Z,1.20
2023-03-31T09:31:20.457Z,1.30
2023-03-31T09:32:20.406Z,1.20
2023-03-31T09:33:20.371Z,1.30
2023-03-31T09:34:20.444Z,1.20
2023-03-31T09:35:20.342Z,1.00
2023-03-31T09:36:20.370Z,1.00
2023-03-31T09:37:20.319Z,1.30
2023-03-31T09:38:20.368Z,1.10
2023-03-31T09:39:20.324Z,0.90
2023-03-31T09:40:20.382Z,1.20
2023-03-31T09:41:20.518Z,0.90
2023-03-31T09:42:20.313Z,1.10
2023-03-31T09:43:20.260Z,1.20
2023-03-31T09:44:20.315Z,1.00
2023-03-31T09:45:20.259Z,1.00
2023-03-31T09:46:20.604Z,1.20
2023-03-31T09:47:20.207Z,1.10
2023-03-31T09:48:20.257Z,1.00
2023-03-31T09:49:20.204Z,0.90
2023-03-31T09:50:20.402Z,1.00
2023-03-31T09:51:21.199Z,1.00
2023-03-31T09:52:20.177Z,1.10
2023-03-31T09:53:20.168Z,1.40
2023-03-31T09:54:20.186Z,1.00
2023-03-31T09:55:32.163Z,0.90
2023-03-31T09:56:21.138Z,1.20
2023-03-31T09:57:20.117Z,1.00
2023-03-31T09:58:20.169Z,1.10
2023-03-31T09:59:20.125Z,0.90
2023-03-31T10:00:20.150Z,1.40
2023-03-31T10:01:20.096Z,1.00
2023-03-31T10:02:20.117Z,1.30
2023-03-31T10:03:20.039Z,1.20
2023-03-31T10:04:20.098Z,1.00
2023-03-31T10:05:20.047Z,1.20
2023-03-31T10:06:20.187Z,1.30
2023-03-31T10:07:20.012Z,1.30
2023-03-31T10:08:20.124Z,1.30
2023-03-31T10:09:19.979Z,0.90
2023-03-31T10:10:20.074Z,1.10
2023-03-31T10:11:19.945Z,1.10
2023-03-31T10:12:19.962Z,1.10
2023-03-31T10:13:19.931Z,1.20
2023-03-31T10:14:19.959Z,1.30
2023-03-31T10:15:19.918Z,1.00
2023-03-31T10:16:19.998Z,1.20
2023-03-31T10:17:19.876Z,1.00
2023-03-31T10:18:19.974Z,1.10
2023-03-31T10:19:19.954Z,1.10
2023-03-31T10:20:20.025Z,1.20
2023-03-31T10:21:19.933Z,1.00
2023-03-31T10:22:20.706Z,1.10
2023-03-31T10:23:19.845Z,1.40
2023-03-31T10:24:19.881Z,1.40
2023-03-31T10:25:19.813Z,1.00
2023-03-31T10:26:19.843Z,1.00
2023-03-31T10:27:20.067Z,1.20
2023-03-31T10:28:19.963Z,1.10
2023-03-31T10:29:19.755Z,1.00
2023-03-31T10:30:19.785Z,1.30
2023-03-31T10:31:19.871Z,1.60
2023-03-31T10:32:19.879Z,1.60
2023-03-31T10:33:23.186Z,1.30
2023-03-31T10:34:19.857Z,1.20
2023-03-31T10:35:19.850Z,1.40
2023-03-31T10:36:19.830Z,1.30
2023-03-31T10:37:19.665Z,1.30
2023-03-31T10:38:20.016Z,1.40
2023-03-31T10:39:19.707Z,1.20
2023-03-31T10:40:19.760Z,1.00
2023-03-31T10:41:19.793Z,1.10
2023-03-31T10:42:19.938Z,1.80
2023-03-31T10:43:19.612Z,1.10
2023-03-31T10:44:19.663Z,1.20
2023-03-31T10:45:33.451Z,1.10
2023-03-31T10:46:20.777Z,1.10
2023-03-31T10:47:19.581Z,1.10
2023-03-31T10:48:19.579Z,1.20
2023-03-31T10:49:19.616Z,1.20
2023-03-31T10:50:19.558Z,1.10
2023-03-31T10:51:19.539Z,1.10
2023-03-31T10:52:19.554Z,0.90
2023-03-31T10:53:19.497Z,1.20
2023-03-31T10:54:19.534Z,1.20
2023-03-31T10:55:19.484Z,1.10
2023-03-31T10:56:19.485Z,1.60
2023-03-31T10:57:19.453Z,1.20
2023-03-31T10:58:19.607Z,1.20
2023-03-31T10:59:19.429Z,1.10
2023-03-31T11:00:19.449Z,1.20
2023-03-31T11:01:19.465Z,1.00
2023-03-31T11:02:19.590Z,1.40
2023-03-31T11:03:19.545Z,1.10
2023-03-31T11:04:19.396Z,1.10
2023-03-31T11:05:19.406Z,1.30
2023-03-31T11:06:19.384Z,1.30
2023-03-31T11:07:19.350Z,1.20
2023-03-31T11:08:19.960Z,1.40
2023-03-31T11:09:19.329Z,1.20
2023-03-31T11:10:20.054Z,1.00
2023-03-31T11:11:19.323Z,1.30
2023-03-31T11:12:19.401Z,1.00
2023-03-31T11:13:19.271Z,1.10
2023-03-31T11:14:19.358Z,1.10
2023-03-31T11:15:19.273Z,1.20
2023-03-31T11:16:19.412Z,1.40
2023-03-31T11:17:19.364Z,1.10
2023-03-31T11:18:19.237Z,1.10
2023-03-31T11:19:19.203Z,1.70
2023-03-31T11:20:19.324Z,1.10
2023-03-31T11:21:19.227Z,1.10
2023-03-31T11:22:19.954Z,1.40
2023-03-31T11:23:19.249Z,1.10
2023-03-31T11:24:19.181Z,1.40
2023-03-31T11:25:19.151Z,1.20
2023-03-31T11:26:19.202Z,1.20
2023-03-31T11:27:19.109Z,1.30
2023-03-31T11:28:19.121Z,0.90
2023-03-31T11:29:19.092Z,1.30
2023-03-31T11:30:19.096Z,1.50
2023-03-31T11:31:19.138Z,1.20
2023-03-31T11:32:19.099Z,1.10
2023-03-31T11:33:19.134Z,1.40
2023-03-31T11:34:19.066Z,1.00
2023-03-31T11:35:19.075Z,1.10
2023-03-31T11:36:19.088Z,1.00
2023-03-31T11:37:19.009Z,1.30
2023-03-31T11:38:19.439Z,1.50
2023-03-31T11:39:19.002Z,1.00
2023-03-31T11:40:18.990Z,0.90
2023-03-31T11:41:19.002Z,1.20
2023-03-31T11:42:18.973Z,1.20
2023-03-31T11:43:18.925Z,0.80
2023-03-31T11:44:19.321Z,1.30
2023-03-31T11:45:18.922Z,1.10
2023-03-31T11:46:19.052Z,1.20
2023-03-31T11:47:18.882Z,1.30
2023-03-31T11:48:18.945Z,1.00
2023-03-31T11:49:18.978Z,1.20
2023-03-31T11:50:18.888Z,1.20
2023-03-31T11:51:18.983Z,0.90
2023-03-31T11:52:18.864Z,1.10
2023-03-31T11:53:18.908Z,0.90
2023-03-31T11:54:18.845Z,1.60
2023-03-31T11:55:18.787Z,0.70
2023-03-31T11:56:18.897Z,0.90
2023-03-31T11:57:18.812Z,1.00
2023-03-31T11:58:18.802Z,1.20
2023-03-31T11:59:18.788Z,0.90
2023-03-31T12:00:19.722Z,0.90
2023-03-31T12:01:18.757Z,1.20
2023-03-31T12:02:18.759Z,0.90
2023-03-31T12:03:18.952Z,0.70
2023-03-31T12:04:19.243Z,1.00
2023-03-31T12:05:19.178Z,0.80
2023-03-31T12:06:18.755Z,0.80
2023-03-31T12:07:18.735Z,0.50
2023-03-31T12:08:18.750Z,0.60
2023-03-31T12:09:18.674Z,0.60
2023-03-31T12:10:18.664Z,0.70
2023-03-31T12:11:18.644Z,0.60
2023-03-31T12:12:18.714Z,0.60
2023-03-31T12:13:18.644Z,0.60
2023-03-31T12:14:18.627Z,0.70
2023-03-31T12:15:18.625Z,0.80
2023-03-31T12:16:18.646Z,0.90
2023-03-31T12:17:19.136Z,0.80
2023-03-31T12:18:18.705Z,1.10
2023-03-31T12:19:18.537Z,0.80
2023-03-31T12:20:18.593Z,1.00
2023-03-31T12:21:18.581Z,1.30
2023-03-31T12:22:18.529Z,1.00
2023-03-31T12:23:18.521Z,1.10
2023-03-31T12:24:19.180Z,0.90
2023-03-31T12:25:19.369Z,1.10
2023-03-31T12:26:18.508Z,1.00
2023-03-31T12:27:18.440Z,0.90
2023-03-31T12:28:18.492Z,0.80
2023-03-31T12:29:18.481Z,1.20
2023-03-31T12:30:18.427Z,1.00
2023-03-31T12:31:18.395Z,1.20
2023-03-31T12:32:18.434Z,1.10
2023-03-31T12:33:18.387Z,0.90
2023-03-31T12:34:18.408Z,0.80
2023-03-31T12:35:18.369Z,0.80
2023-03-31T12:36:18.416Z,1.10
2023-03-31T12:37:18.395Z,1.10
2023-03-31T12:38:18.367Z,1.00
2023-03-31T12:39:18.347Z,0.90
2023-03-31T12:40:18.351Z,0.90
2023-03-31T12:41:18.305Z,0.90
2023-03-31T12:42:18.317Z,1.00
2023-03-31T12:43:18.372Z,1.10
2023-03-31T12:44:18.272Z,1.10
2023-03-31T12:45:18.302Z,1.00
2023-03-31T12:46:18.246Z,1.10
2023-03-31T12:47:18.295Z,1.00
2023-03-31T12:48:18.211Z,1.40
2023-03-31T12:49:18.232Z,1.10
2023-03-31T12:50:18.354Z,1.50
2023-03-31T12:51:18.238Z,0.90
2023-03-31T12:52:18.165Z,1.20
2023-03-31T12:53:18.229Z,1.30
2023-03-31T12:54:18.224Z,1.30
2023-03-31T12:55:18.172Z,1.60
2023-03-31T12:56:18.123Z,1.00
2023-03-31T12:57:18.245Z,1.40
2023-03-31T12:58:18.094Z,1.30
2023-03-31T12:59:18.140Z,1.90
2023-03-31T13:00:18.092Z,1.40
2023-03-31T13:01:18.150Z,1.70
2023-03-31T13:02:18.092Z,1.10
2023-03-31T13:03:18.106Z,0.90
2023-03-31T13:04:18.056Z,0.80
2023-03-31T13:05:18.090Z,0.90
2023-03-31T13:06:19.437Z,1.00
2023-03-31T13:07:27.800Z,1.30
2023-03-31T13:08:18.997Z,0.80
2023-03-31T13:09:18.046Z,1.40
2023-03-31T13:10:18.006Z,1.50
2023-03-31T13:11:18.004Z,1.30
2023-03-31T13:12:17.981Z,1.20
2023-03-31T13:13:17.955Z,1.10
2023-03-31T13:14:17.978Z,1.50
2023-03-31T13:15:17.944Z,1.40
2023-03-31T13:16:18.422Z,1.30
2023-03-31T13:17:18.046Z,1.60
2023-03-31T13:18:17.951Z,1.30
2023-03-31T13:19:17.905Z,1.20
2023-03-31T13:20:17.932Z,1.10
2023-03-31T13:21:18.190Z,1.10
2023-03-31T13:22:17.978Z,1.10
2023-03-31T13:23:17.926Z,1.30
2023-03-31T13:24:17.837Z,1.10
2023-03-31T13:25:17.838Z,1.40
2023-03-31T13:26:18.601Z,0.80
2023-03-31T13:27:17.813Z,1.10
2023-03-31T13:28:17.780Z,1.30
2023-03-31T13:29:17.772Z,1.70
2023-03-31T13:30:17.830Z,1.40
2023-03-31T13:31:17.897Z,1.00
2023-03-31T13:32:17.717Z,1.40
2023-03-31T13:33:18.457Z,1.40
2023-03-31T13:34:17.702Z,1.20
2023-03-31T13:35:17.751Z,1.10
2023-03-31T13:36:17.704Z,0.90
2023-03-31T13:37:17.676Z,1.10
2023-03-31T13:38:17.686Z,0.90
2023-03-31T13:39:17.675Z,1.30
2023-03-31T13:40:17.627Z,1.40
2023-03-31T13:41:17.670Z,1.20
2023-03-31T13:42:17.616Z,1.30
2023-03-31T13:43:17.618Z,1.60
2023-03-31T13:44:17.645Z,1.80
2023-03-31T13:45:17.617Z,1.70
2023-03-31T13:46:17.786Z,1.10
2023-03-31T13:47:18.290Z,1.10
2023-03-31T13:48:17.539Z,1.30
2023-03-31T13:49:17.570Z,1.30
2023-03-31T13:50:17.506Z,1.20
2023-03-31T13:51:17.545Z,1.00
2023-03-31T13:52:17.520Z,1.00
2023-03-31T13:53:17.486Z,1.00
2023-03-31T13:54:17.531Z,0.70
2023-03-31T13:55:17.835Z,0.80
2023-03-31T13:56:17.475Z,0.60
2023-03-31T13:57:17.526Z,0.60
2023-03-31T13:58:32.894Z,0.70
2023-03-31T13:59:18.526Z,0.90
2023-03-31T14:00:17.432Z,1.10
2023-03-31T14:01:17.482Z,1.30
2023-03-31T14:02:17.652Z,1.10
2023-03-31T14:03:17.469Z,0.80
2023-03-31T14:04:17.364Z,0.80
2023-03-31T14:05:17.520Z,0.70
2023-03-31T14:06:17.330Z,1.20
2023-03-31T14:07:18.186Z,1.10
2023-03-31T14:08:17.316Z,1.10
2023-03-31T14:09:17.311Z,1.30
2023-03-31T14:10:17.285Z,1.10
2023-03-31T14:11:17.428Z,0.80
2023-03-31T14:12:17.299Z,1.20
2023-03-31T14:13:18.680Z,1.10
2023-03-31T14:14:17.256Z,0.90
2023-03-31T14:15:17.272Z,1.30
2023-03-31T14:16:17.254Z,1.40
2023-03-31T14:17:17.260Z,1.20
2023-03-31T14:18:17.278Z,1.50
2023-03-31T14:19:17.236Z,1.00
2023-03-31T14:20:17.188Z,0.90
2023-03-31T14:21:17.246Z,0.90
2023-03-31T14:22:17.149Z,0.90
2023-03-31T14:23:17.175Z,1.00
2023-03-31T14:24:17.161Z,1.00
2023-03-31T14:25:17.242Z,0.90
2023-03-31T14:26:17.105Z,0.90
2023-03-31T14:27:17.237Z,0.80
2023-03-31T14:28:18.101Z,1.10
2023-03-31T14:29:17.130Z,0.70
2023-03-31T14:30:17.138Z,1.00
2023-03-31T14:31:17.111Z,0.90
2023-03-31T14:32:17.122Z,0.90
2023-03-31T14:33:17.085Z,0.80
2023-03-31T14:34:17.152Z,0.90
2023-03-31T14:35:17.230Z,0.90
2023-03-31T14:36:17.835Z,0.50
2023-03-31T14:37:17.021Z,0.90
2023-03-31T14:38:17.882Z,0.90
2023-03-31T14:39:17.819Z,0.80
2023-03-31T14:40:16.957Z,1.00
2023-03-31T14:41:17.839Z,1.30
2023-03-31T14:42:16.932Z,1.10
2023-03-31T14:43:16.961Z,1.10
2023-03-31T14:44:16.974Z,1.30
2023-03-31T14:45:17.704Z,0.90
2023-03-31T14:46:17.170Z,1.00
2023-03-31T14:47:16.914Z,0.70
2023-03-31T14:48:16.906Z,0.90
2023-03-31T14:49:17.837Z,1.10
2023-03-31T14:50:16.888Z,1.20
2023-03-31T14:51:17.722Z,2.70
2023-03-31T14:52:16.815Z,1.50
2023-03-31T14:53:16.828Z,1.60
2023-03-31T14:54:16.787Z,1.70
2023-03-31T14:55:16.876Z,1.60
2023-03-31T14:56:16.795Z,1.10
2023-03-31T14:57:16.825Z,1.50
2023-03-31T14:58:16.763Z,1.20
2023-03-31T14:59:16.747Z,1.40
2023-03-31T15:00:17.120Z,2.30
2023-03-31T15:01:16.799Z,2.30
2023-03-31T15:02:16.728Z,2.10
2023-03-31T15:03:16.765Z,1.60
2023-03-31T15:04:16.678Z,1.10
2023-03-31T15:05:16.751Z,1.20
2023-03-31T15:06:16.743Z,1.10
2023-03-31T15:07:16.666Z,1.20
2023-03-31T15:08:16.811Z,1.20
2023-03-31T15:09:16.685Z,1.60
2023-03-31T15:10:16.669Z,1.40
2023-03-31T15:11:19.072Z,1.80
2023-03-31T15:12:16.595Z,1.80
2023-03-31T15:13:16.666Z,1.10
2023-03-31T15:14:16.785Z,1.30
2023-03-31T15:15:16.588Z,1.00
2023-03-31T15:16:16.594Z,1.20
2023-03-31T15:17:16.636Z,1.20
2023-03-31T15:18:16.561Z,1.20
2023-03-31T15:19:16.556Z,1.30
2023-03-31T15:20:17.407Z,1.20
2023-03-31T15:21:16.621Z,1.30
2023-03-31T15:22:16.652Z,1.50
2023-03-31T15:23:16.491Z,1.60
2023-03-31T15:24:16.545Z,1.30
2023-03-31T15:25:16.479Z,1.50
2023-03-31T15:26:16.653Z,1.80
2023-03-31T15:28:17.428Z,1.50
2023-03-31T15:29:17.454Z,1.70
2023-03-31T15:30:16.414Z,1.40
2023-03-31T15:31:16.538Z,1.00
2023-03-31T15:32:16.541Z,1.20
2023-03-31T15:34:17.450Z,1.20
2023-03-31T15:36:16.348Z,1.10
2023-03-31T15:37:16.342Z,1.20
2023-03-31T15:38:16.436Z,1.20
2023-03-31T15:39:16.331Z,1.30
2023-03-31T15:40:16.286Z,1.20
2023-03-31T15:41:16.279Z,1.70
2023-03-31T15:42:16.308Z,0.90
2023-03-31T15:43:25.470Z,1.20
2023-03-31T15:44:17.218Z,1.30
2023-03-31T15:45:16.287Z,1.10
2023-03-31T15:46:16.277Z,1.00
2023-03-31T15:47:16.277Z,1.40
2023-03-31T15:48:16.196Z,1.10
2023-03-31T15:49:16.482Z,1.10
2023-03-31T15:50:16.279Z,1.00
2023-03-31T15:51:16.196Z,1.20
2023-03-31T15:52:16.203Z,1.00
2023-03-31T15:53:16.143Z,1.10
2023-03-31T15:54:16.175Z,0.90
2023-03-31T15:55:16.141Z,1.20
2023-03-31T15:56:16.133Z,1.00
2023-03-31T15:57:16.112Z,0.90
2023-03-31T15:58:16.149Z,1.20
2023-03-31T15:59:16.080Z,1.10
2023-03-31T16:00:16.050Z,1.10
2023-03-31T16:01:16.147Z,1.50
2023-03-31T16:02:16.030Z,1.40
2023-03-31T16:03:16.037Z,1.60
2023-03-31T16:04:16.089Z,1.30
2023-03-31T16:06:16.003Z,1.20
2023-03-31T16:07:16.121Z,1.50
2023-03-31T16:08:15.968Z,1.50
2023-03-31T16:09:15.995Z,1.60
2023-03-31T16:10:16.722Z,1.30
2023-03-31T16:11:15.973Z,1.70
2023-03-31T16:12:15.934Z,1.20
2023-03-31T16:13:15.920Z,1.60
2023-03-31T16:14:15.925Z,1.30
2023-03-31T16:15:15.946Z,1.10
2023-03-31T16:16:15.895Z,1.30
2023-03-31T16:17:15.876Z,1.30
2023-03-31T16:18:15.864Z,1.20
2023-03-31T16:19:15.860Z,1.60
2023-03-31T16:20:15.846Z,1.40
2023-03-31T16:21:15.858Z,2.00
2023-03-31T16:22:15.817Z,2.00
2023-03-31T16:23:15.873Z,1.40
2023-03-31T16:24:15.814Z,1.20
2023-03-31T16:25:15.797Z,1.80
2023-03-31T16:26:15.765Z,1.80
2023-03-31T16:27:15.812Z,1.80
2023-03-31T16:28:15.737Z,1.80
2023-03-31T16:29:16.427Z,2.00
2023-03-31T16:30:15.788Z,2.00
2023-03-31T16:31:15.761Z,1.80
2023-03-31T16:32:15.712Z,1.90
2023-03-31T16:33:15.703Z,1.90
2023-03-31T16:34:15.736Z,1.90
2023-03-31T16:35:15.684Z,1.80
2023-03-31T16:36:15.638Z,1.60
2023-03-31T16:37:15.757Z,1.80
2023-03-31T16:38:15.625Z,1.80
2023-03-31T16:39:15.656Z,1.50
2023-03-31T16:40:15.703Z,1.90
2023-03-31T16:41:15.648Z,1.80
2023-03-31T16:42:15.586Z,2.30
2023-03-31T16:43:15.643Z,1.60
2023-03-31T16:44:15.591Z,1.70
2023-03-31T16:45:15.611Z,1.70
2023-03-31T16:46:15.587Z,1.10
2023-03-31T16:47:27.457Z,1.20
2023-03-31T16:48:17.456Z,1.20
2023-03-31T16:49:15.526Z,1.20
2023-03-31T16:50:15.565Z,1.40
2023-03-31T16:51:15.862Z,1.40
2023-03-31T16:52:15.468Z,1.50
2023-03-31T16:53:15.521Z,1.30
2023-03-31T16:54:15.455Z,1.50
2023-03-31T16:55:15.467Z,2.10
2023-03-31T16:56:15.455Z,1.90
2023-03-31T16:57:15.432Z,2.00
2023-03-31T16:58:15.399Z,2.00
2023-03-31T16:59:15.465Z,2.00
2023-03-31T17:00:15.431Z,1.80
2023-03-31T17:01:15.409Z,2.30
2023-03-31T17:02:15.443Z,2.60
2023-03-31T17:03:15.378Z,1.80
2023-03-31T17:04:15.357Z,2.00
2023-03-31T17:05:15.317Z,2.10
2023-03-31T17:06:15.397Z,2.00
2023-03-31T17:07:15.558Z,2.00
2023-03-31T17:08:15.336Z,2.60
2023-03-31T17:09:15.273Z,2.10
2023-03-31T17:10:15.301Z,1.70
2023-03-31T17:11:16.238Z,2.30
2023-03-31T17:12:15.450Z,2.00
2023-03-31T17:13:15.242Z,2.50
2023-03-31T17:14:15.267Z,2.30
2023-03-31T17:15:15.224Z,1.90
2023-03-31T17:16:19.143Z,2.10
2023-03-31T17:17:17.975Z,2.20
2023-03-31T17:18:15.285Z,2.20
2023-03-31T17:19:15.160Z,1.90
2023-03-31T17:20:15.180Z,2.00
2023-03-31T17:21:15.166Z,2.10
2023-03-31T17:22:15.167Z,2.10
2023-03-31T17:23:15.122Z,1.90
2023-03-31T17:24:15.172Z,3.10
2023-03-31T17:25:15.101Z,3.60
2023-03-31T17:26:15.174Z,3.10
2023-03-31T17:27:15.086Z,3.50
2023-03-31T17:28:15.237Z,2.90
2023-03-31T17:29:16.650Z,2.70
2023-03-31T17:30:15.284Z,3.10
2023-03-31T17:31:15.015Z,2.60
2023-03-31T17:32:15.100Z,2.50
2023-03-31T17:33:15.088Z,2.80
2023-03-31T17:34:15.028Z,2.80
2023-03-31T17:35:15.262Z,2.50
2023-03-31T17:36:14.982Z,2.10
2023-03-31T17:37:14.986Z,2.40
2023-03-31T17:38:14.966Z,2.10
2023-03-31T17:39:14.943Z,2.10
2023-03-31T17:40:14.951Z,1.70
2023-03-31T17:41:14.923Z,2.00
2023-03-31T17:42:14.947Z,1.90
2023-03-31T17:43:14.975Z,2.20
2023-03-31T17:44:14.909Z,2.30
2023-03-31T17:45:14.886Z,2.00
2023-03-31T17:46:14.911Z,2.20
2023-03-31T17:47:14.960Z,2.20
2023-03-31T17:48:14.863Z,1.80
2023-03-31T17:49:14.814Z,2.50
2023-03-31T17:50:14.830Z,2.30
2023-03-31T17:51:14.810Z,2.60
2023-03-31T17:52:14.851Z,2.10
2023-03-31T17:53:15.634Z,2.00
2023-03-31T17:54:14.783Z,2.40
2023-03-31T17:55:14.761Z,2.40
2023-03-31T17:56:14.758Z,2.70
2023-03-31T17:57:14.771Z,1.80
2023-03-31T17:58:14.806Z,2.10
2023-03-31T17:59:14.718Z,2.20
2023-03-31T18:00:14.715Z,2.30
2023-03-31T18:01:14.759Z,2.10
2023-03-31T18:02:14.716Z,2.30
2023-03-31T18:03:14.724Z,1.70
2023-03-31T18:04:14.707Z,3.20
2023-03-31T18:05:16.997Z,2.30
2023-03-31T18:06:14.682Z,2.30
2023-03-31T18:07:14.648Z,1.70
2023-03-31T18:08:14.658Z,1.70
2023-03-31T18:09:14.863Z,2.00
2023-03-31T18:10:14.685Z,1.90
2023-03-31T18:11:14.861Z,2.20
2023-03-31T18:12:14.657Z,3.10
2023-03-31T18:13:14.553Z,1.70
2023-03-31T18:14:14.597Z,1.80
2023-03-31T18:15:14.540Z,1.50
2023-03-31T18:16:14.644Z,1.30
2023-03-31T18:17:14.510Z,1.40
2023-03-31T18:18:14.656Z,1.90
2023-03-31T18:19:14.497Z,2.30
2023-03-31T18:20:14.519Z,1.30
2023-03-31T18:21:14.445Z,1.40
2023-03-31T18:22:14.753Z,1.70
2023-03-31T18:23:14.438Z,1.20
2023-03-31T18:24:14.594Z,1.50
2023-03-31T18:25:14.527Z,1.10
2023-03-31T18:26:14.823Z,1.50
2023-03-31T18:27:14.456Z,1.40
2023-03-31T18:28:14.495Z,1.30
2023-03-31T18:29:14.605Z,0.90
2023-03-31T18:30:14.377Z,1.30
2023-03-31T18:31:14.396Z,1.10
2023-03-31T18:32:14.459Z,1.60
2023-03-31T18:33:14.490Z,1.30
2023-03-31T18:34:14.328Z,1.40
2023-03-31T18:35:14.345Z,0.90
2023-03-31T18:36:14.422Z,0.90
2023-03-31T18:37:14.354Z,1.10
2023-03-31T18:38:14.313Z,0.90
2023-03-31T18:39:14.265Z,1.10
2023-03-31T18:40:14.280Z,1.00
2023-03-31T18:41:14.303Z,1.00
2023-03-31T18:42:14.255Z,1.10
2023-03-31T18:43:14.217Z,0.90
2023-03-31T18:44:14.265Z,0.90
2023-03-31T18:45:14.260Z,1.00
2023-03-31T18:46:14.267Z,1.00
2023-03-31T18:47:14.228Z,0.90
2023-03-31T18:48:14.360Z,0.90
2023-03-31T18:49:14.227Z,0.90
2023-03-31T18:50:14.169Z,1.20
2023-03-31T18:51:14.126Z,1.10
2023-03-31T18:52:14.154Z,1.00
2023-03-31T18:53:14.113Z,1.10
2023-03-31T18:54:14.436Z,1.00
2023-03-31T18:55:14.168Z,0.80
2023-03-31T18:56:14.143Z,1.00
2023-03-31T18:57:14.125Z,1.00
2023-03-31T18:58:14.066Z,1.20
2023-03-31T18:59:14.074Z,0.90
2023-03-31T19:00:14.064Z,1.00
2023-03-31T19:01:14.136Z,1.10
2023-03-31T19:02:14.126Z,1.00
2023-03-31T19:03:14.184Z,1.10
2023-03-31T19:04:14.048Z,0.90
2023-03-31T19:05:14.217Z,1.00
2023-03-31T19:06:14.095Z,1.30
2023-03-31T19:07:13.983Z,0.90
2023-03-31T19:08:14.038Z,0.70
2023-03-31T19:09:13.936Z,0.90
2023-03-31T19:10:13.956Z,0.90
2023-03-31T19:11:13.925Z,1.20
2023-03-31T19:12:14.001Z,1.10
2023-03-31T19:13:13.898Z,1.00
2023-03-31T19:14:13.939Z,0.70
2023-03-31T19:15:13.912Z,1.10
2023-03-31T19:16:13.969Z,1.00
2023-03-31T19:17:14.048Z,1.40
2023-03-31T19:18:13.938Z,0.80
2023-03-31T19:19:13.840Z,0.70
2023-03-31T19:20:13.857Z,0.80
2023-03-31T19:21:13.788Z,1.00
2023-03-31T19:22:13.890Z,1.10
2023-03-31T19:23:13.797Z,1.10
2023-03-31T19:24:13.816Z,0.90
2023-03-31T19:25:13.824Z,1.00
2023-03-31T19:26:13.805Z,1.10
2023-03-31T19:27:13.733Z,1.00
2023-03-31T19:28:13.752Z,0.80
2023-03-31T19:29:13.731Z,0.90
2023-03-31T19:30:13.821Z,1.20
2023-03-31T19:31:13.766Z,1.30
2023-03-31T19:32:13.926Z,1.00
2023-03-31T19:33:13.729Z,1.00
2023-03-31T19:34:14.536Z,1.20
2023-03-31T19:35:13.688Z,1.00
2023-03-31T19:36:13.745Z,1.20
2023-03-31T19:37:13.633Z,1.10
2023-03-31T19:38:13.760Z,1.00
2023-03-31T19:39:13.666Z,1.10
2023-03-31T19:40:13.742Z,0.90
2023-03-31T19:41:13.577Z,1.20
2023-03-31T19:42:13.571Z,0.70
2023-03-31T19:43:13.599Z,0.50
2023-03-31T19:44:13.588Z,0.90
2023-03-31T19:45:13.560Z,0.60
2023-03-31T19:46:13.675Z,0.90
2023-03-31T19:47:13.632Z,0.80
2023-03-31T19:48:13.540Z,0.80
2023-03-31T19:49:13.659Z,1.10
2023-03-31T19:50:13.656Z,0.80
2023-03-31T19:51:13.618Z,0.90
2023-03-31T19:52:13.485Z,0.80
2023-03-31T19:53:13.562Z,0.90
2023-03-31T19:54:13.748Z,0.90
2023-03-31T19:55:13.465Z,1.10
2023-03-31T19:56:13.443Z,1.00
2023-03-31T19:57:13.496Z,0.80
2023-03-31T19:58:13.401Z,0.80
2023-03-31T19:59:13.412Z,1.00
2023-03-31T20:00:13.466Z,0.90
2023-03-31T20:01:13.415Z,0.80
2023-03-31T20:02:13.507Z,1.00
2023-03-31T20:03:13.456Z,0.90
2023-03-31T20:04:13.518Z,0.90
2023-03-31T20:05:13.426Z,0.80
2023-03-31T20:06:13.339Z,1.00
2023-03-31T20:07:13.292Z,0.70